Hlavní strana
METAR-TAF:

METAR-TAF

Letiště :

Tabarka, Tunisko

zeměpisná šířka: 36-57N, zeměpisná délka: 008-45E, výška: 20 m

Aktuální stav počasí

Zpráva byla vytvořena před 15 minutami, v 20:00 UTC
Bezvětří
Teplota 12°C
Vlhkost vzduchu 71%
Tlak 1023 hPa
Viditelnost 10 km a více
Polojasno ve výšce 2000 ft

METAR: DTKA 132000Z 00000KT 9999 SCT020 12/07 Q1023 NOSIG

Čas: 21:15 (20:15 UTC)

Předpověď počasí

Zpráva byla vytvořena před 2 hodinami a 15 minutami, v 18:00 UTC
Předpověď platná od 13 v 19 UTC do 14 v 04 UTC
Západoseverozápadní vítr 5 kt
Viditelnost 10 km a více
Polojasno ve výšce 2000 ft

TAF: DTKA 131800Z 1319/1404 29005KT 9999 SCT020

Stav a předpovědi počasí z více než 4 000 letišť (zprávy METAR a TAF).

Červené a žluté tečky na mapě představují dostupné meteorologické stanice.

Když kurzor umístíte na tečku, zobrazí se název stanice.

Pak kliknutím zobrazíte stav a předpověď počasí.

Chcete-li změnit mapu, kliknutím na zelené tlačítko se znaménkem +mapu přiblížíte, kliknutím na zelené tlačítko se znaménkem – mapu oddálíte a kliknutím na zelené šipky přejdete na sousední mapy.


METAR-TAF: